Time;durP1;ratioP1;P1;durP2;ratioP2;P2;SDS_P1;SDS_P2;PMS_P1;PMS_P2;Temp;Humidity;BMP_temperature;BMP_pressure;BME280_temperature;BME280_humidity;BME280_pressure;Samples;Min_cycle;Max_cycle;Signal;HPM_P1;HPM_P2
2022/06/12 00:01:20;;;;;;;3.60;3.22;;;;;;;;;;5039257;28;20048;-87
2022/06/12 00:03:49;;;;;;;3.40;3.17;;;;;;;;;;5056144;28;20512;-86
2022/06/12 00:06:17;;;;;;;3.63;3.30;;;;;;;;;;5038825;28;20053;-86
2022/06/12 00:08:44;;;;;;;3.83;3.53;;;;;;;;;;5056075;28;20416;-86
2022/06/12 00:11:16;;;;;;;3.45;3.15;;;;;;;;;;5038887;28;20216;-86
2022/06/12 00:13:52;;;;;;;3.75;3.05;;;;;;;;;;5038610;28;20048;-86
2022/06/12 00:16:19;;;;;;;3.63;3.28;;;;;;;;;;5038662;28;20493;-86
2022/06/12 00:18:47;;;;;;;3.88;3.50;;;;;;;;;;5038656;28;20048;-86
2022/06/12 00:21:15;;;;;;;3.70;3.40;;;;;;;;;;5055891;28;20537;-86
2022/06/12 00:23:54;;;;;;;4.82;3.63;;;;;;;;;;5038440;28;20053;-86
2022/06/12 00:26:25;;;;;;;4.05;3.72;;;;;;;;;;5055894;28;20398;-86
2022/06/12 00:29:05;;;;;;;5.10;4.00;;;;;;;;;;5055948;28;20128;-87
2022/06/12 00:31:33;;;;;;;3.83;3.47;;;;;;;;;;5038215;28;20049;-86
2022/06/12 00:34:01;;;;;;;4.57;3.55;;;;;;;;;;5038129;28;20459;-87
2022/06/12 00:36:29;;;;;;;3.63;3.33;;;;;;;;;;5046625;28;20021;-86
2022/06/12 00:38:56;;;;;;;6.93;3.67;;;;;;;;;;5048121;28;20040;-86
2022/06/12 00:41:23;;;;;;;3.85;3.50;;;;;;;;;;5055831;28;20056;-87
2022/06/12 00:43:50;;;;;;;6.53;3.70;;;;;;;;;;5038007;28;20047;-87
2022/06/12 00:46:35;;;;;;;3.92;3.42;;;;;;;;;;5055343;28;20139;-87
2022/06/12 00:49:08;;;;;;;3.55;3.25;;;;;;;;;;5037900;28;20076;-86
2022/06/12 00:51:36;;;;;;;4.30;3.95;;;;;;;;;;5037085;28;20069;-86
2022/06/12 00:54:04;;;;;;;5.20;3.80;;;;;;;;;;5055492;28;20041;-87
2022/06/12 00:56:33;;;;;;;4.10;3.58;;;;;;;;;;5037734;28;20139;-87
2022/06/12 00:59:07;;;;;;;3.78;3.40;;;;;;;;;;5054884;28;20055;-87
2022/06/12 01:01:36;;;;;;;3.70;3.40;;;;;;;;;;5055393;28;20056;-86
2022/06/12 01:06:50;;;;;;;4.72;4.30;;;;;;;;;;5055083;28;20045;-87
2022/06/12 01:09:22;;;;;;;4.18;3.80;;;;;;;;;;5055002;28;20554;-86
2022/06/12 01:11:51;;;;;;;8.60;4.45;;;;;;;;;;5055123;28;20132;-86
2022/06/12 01:14:21;;;;;;;4.53;4.13;;;;;;;;;;5037431;28;20132;-87
2022/06/12 01:16:48;;;;;;;6.05;3.90;;;;;;;;;;5037598;28;20127;-86
2022/06/12 01:19:31;;;;;;;5.15;4.10;;;;;;;;;;5037548;28;20055;-87
2022/06/12 01:22:10;;;;;;;6.22;4.50;;;;;;;;;;5037337;28;20168;-86
2022/06/12 01:24:44;;;;;;;4.97;4.32;;;;;;;;;;5037291;28;20049;-86
2022/06/12 01:27:14;;;;;;;7.18;4.72;;;;;;;;;;5037271;28;20476;-87
2022/06/12 01:30:02;;;;;;;7.10;4.13;;;;;;;;;;5037290;28;20135;-87
2022/06/12 01:32:34;;;;;;;4.90;4.50;;;;;;;;;;5037456;28;20076;-86
2022/06/12 01:35:17;;;;;;;4.68;4.38;;;;;;;;;;5037147;28;20136;-86
2022/06/12 01:38:02;;;;;;;5.32;4.78;;;;;;;;;;5037245;28;20099;-86
2022/06/12 01:40:34;;;;;;;4.60;4.20;;;;;;;;;;5054292;28;20045;-87
2022/06/12 01:43:17;;;;;;;4.68;4.28;;;;;;;;;;5054483;28;20055;-86
2022/06/12 01:45:44;;;;;;;5.60;5.07;;;;;;;;;;5037078;28;20055;-86
2022/06/12 01:48:19;;;;;;;4.97;4.43;;;;;;;;;;5037012;28;20099;-87
2022/06/12 01:50:55;;;;;;;5.28;4.78;;;;;;;;;;5054327;28;20045;-85
2022/06/12 01:53:40;;;;;;;5.65;5.15;;;;;;;;;;5061424;28;20039;-86
2022/06/12 01:56:15;;;;;;;5.38;4.88;;;;;;;;;;5061978;28;20139;-86
2022/06/12 01:58:53;;;;;;;5.32;4.93;;;;;;;;;;5036642;28;20045;-87
2022/06/12 02:01:29;;;;;;;5.93;5.32;;;;;;;;;;5036374;28;20049;-87
2022/06/12 02:04:16;;;;;;;10.35;5.30;;;;;;;;;;5036136;28;20497;-87
2022/06/12 02:06:46;;;;;;;8.20;5.70;;;;;;;;;;5036330;28;20540;-86
2022/06/12 02:09:19;;;;;;;9.15;5.57;;;;;;;;;;5053785;28;20139;-86
2022/06/12 02:14:39;;;;;;;6.78;5.53;;;;;;;;;;5053469;28;20051;-87
2022/06/12 02:17:08;;;;;;;5.97;5.10;;;;;;;;;;5036051;28;20049;-86
2022/06/12 02:19:39;;;;;;;6.55;5.30;;;;;;;;;;5053819;28;20081;-86
2022/06/12 02:22:08;;;;;;;7.38;5.93;;;;;;;;;;5053304;28;20081;-86
2022/06/12 02:24:41;;;;;;;6.38;5.47;;;;;;;;;;5053330;28;20132;-86
2022/06/12 02:27:16;;;;;;;7.78;5.75;;;;;;;;;;5035974;28;20084;-86
2022/06/12 02:29:47;;;;;;;7.28;5.55;;;;;;;;;;5053478;28;20076;-87
2022/06/12 02:32:26;;;;;;;7.10;6.40;;;;;;;;;;5053401;28;20059;-87
2022/06/12 02:34:59;;;;;;;7.15;6.05;;;;;;;;;;5053010;28;20051;-87
2022/06/12 02:37:29;;;;;;;6.57;6.03;;;;;;;;;;5053374;28;20056;-86
2022/06/12 02:39:58;;;;;;;6.72;6.13;;;;;;;;;;5053250;28;20045;-86
2022/06/12 02:42:27;;;;;;;8.45;6.43;;;;;;;;;;5053381;28;20132;-87
2022/06/12 02:45:09;;;;;;;7.28;5.97;;;;;;;;;;5035321;28;20063;-87
2022/06/12 02:47:38;;;;;;;9.70;6.53;;;;;;;;;;5053187;28;20088;-87
2022/06/12 02:50:06;;;;;;;6.72;6.13;;;;;;;;;;5035402;28;20110;-87
2022/06/12 02:52:54;;;;;;;6.80;6.10;;;;;;;;;;5053238;28;20216;-87
2022/06/12 02:55:24;;;;;;;7.47;6.78;;;;;;;;;;5035241;28;20136;-87
2022/06/12 02:57:56;;;;;;;7.93;6.97;;;;;;;;;;5052697;28;20453;-86
2022/06/12 03:00:23;;;;;;;6.88;6.25;;;;;;;;;;5035332;28;20053;-87
2022/06/12 03:03:03;;;;;;;8.57;6.90;;;;;;;;;;5035501;28;20497;-87
2022/06/12 03:05:33;;;;;;;7.40;6.63;;;;;;;;;;5035377;28;20095;-86
2022/06/12 03:08:02;;;;;;;6.85;6.20;;;;;;;;;;5052666;28;20080;-86
2022/06/12 03:10:35;;;;;;;7.93;6.90;;;;;;;;;;5043102;28;20076;-87
2022/06/12 03:13:03;;;;;;;9.05;7.10;;;;;;;;;;5047071;28;20354;-87
2022/06/12 03:15:44;;;;;;;7.60;6.90;;;;;;;;;;5053366;28;20053;-87
2022/06/12 03:18:14;;;;;;;6.85;6.13;;;;;;;;;;5035105;28;20052;-87
2022/06/12 03:20:55;;;;;;;8.65;6.65;;;;;;;;;;5035379;28;20044;-87
2022/06/12 03:23:25;;;;;;;9.23;7.05;;;;;;;;;;5052872;28;20063;-88
2022/06/12 03:25:54;;;;;;;9.38;7.35;;;;;;;;;;5035313;28;20513;-87
2022/06/12 03:28:25;;;;;;;8.40;6.30;;;;;;;;;;5053024;28;20107;-87
2022/06/12 03:30:59;;;;;;;8.68;6.78;;;;;;;;;;5052654;28;20132;-87
2022/06/12 03:33:36;;;;;;;6.95;6.25;;;;;;;;;;5035299;28;20053;-87
2022/06/12 03:36:07;;;;;;;7.03;6.43;;;;;;;;;;5035152;28;20059;-87
2022/06/12 03:38:43;;;;;;;7.65;6.68;;;;;;;;;;5035566;28;20094;-87
2022/06/12 03:41:19;;;;;;;8.32;7.47;;;;;;;;;;5035134;28;20473;-87
2022/06/12 03:43:46;;;;;;;9.55;7.20;;;;;;;;;;5052613;28;20045;-87
2022/06/12 03:46:22;;;;;;;9.20;7.30;;;;;;;;;;5035070;28;20153;-86
2022/06/12 03:49:00;;;;;;;11.13;7.68;;;;;;;;;;5052629;28;20045;-87
2022/06/12 03:51:48;;;;;;;9.60;7.13;;;;;;;;;;5052704;28;20140;-86
2022/06/12 03:54:26;;;;;;;7.72;7.03;;;;;;;;;;5019118;28;20051;-86
2022/06/12 03:59:52;;;;;;;7.70;6.93;;;;;;;;;;5052235;28;20127;-87
2022/06/12 04:02:23;;;;;;;8.38;7.28;;;;;;;;;;5034990;28;20127;-87
2022/06/12 04:04:51;;;;;;;8.20;7.28;;;;;;;;;;5052488;28;20120;-87
2022/06/12 04:07:20;;;;;;;8.55;7.63;;;;;;;;;;5052453;28;20044;-87
2022/06/12 04:09:50;;;;;;;8.80;7.43;;;;;;;;;;5035057;28;20132;-86
2022/06/12 04:12:23;;;;;;;9.45;7.80;;;;;;;;;;5052292;28;20428;-87
2022/06/12 04:14:59;;;;;;;7.97;7.28;;;;;;;;;;5052093;28;20049;-87
2022/06/12 04:17:26;;;;;;;7.03;6.43;;;;;;;;;;5034767;28;20080;-87
2022/06/12 04:19:59;;;;;;;11.30;7.10;;;;;;;;;;5034775;28;20041;-87
2022/06/12 04:22:46;;;;;;;11.52;6.97;;;;;;;;;;5052405;28;20136;-87
2022/06/12 04:25:26;;;;;;;8.57;7.13;;;;;;;;;;5052442;28;20059;-87
2022/06/12 04:27:53;;;;;;;7.80;6.40;;;;;;;;;;5049320;28;20033;-87
2022/06/12 04:30:25;;;;;;;7.90;6.40;;;;;;;;;;5047562;28;20044;-87
2022/06/12 04:33:13;;;;;;;9.60;6.53;;;;;;;;;;5055580;28;20084;-87
2022/06/12 04:35:45;;;;;;;10.95;6.63;;;;;;;;;;4989464;28;20049;-87
2022/06/12 04:38:12;;;;;;;9.07;6.45;;;;;;;;;;5038310;28;20136;-87
2022/06/12 04:40:40;;;;;;;8.32;5.75;;;;;;;;;;5038115;28;20045;-87
2022/06/12 04:43:07;;;;;;;11.38;6.50;;;;;;;;;;5038152;28;20072;-87
2022/06/12 04:45:35;;;;;;;10.27;5.95;;;;;;;;;;5037838;28;20087;-85
2022/06/12 04:48:03;;;;;;;7.25;4.93;;;;;;;;;;5055017;28;20063;-86
2022/06/12 04:50:31;;;;;;;5.50;4.47;;;;;;;;;;5055520;28;20082;-87
2022/06/12 04:52:58;;;;;;;5.43;4.40;;;;;;;;;;5055050;28;20517;-86
2022/06/12 04:55:25;;;;;;;4.47;4.07;;;;;;;;;;5037704;28;20127;-87
2022/06/12 04:57:52;;;;;;;3.97;3.72;;;;;;;;;;5055260;28;20049;-87
2022/06/12 05:00:20;;;;;;;6.18;3.70;;;;;;;;;;5054842;28;20057;-87
2022/06/12 05:02:47;;;;;;;4.38;3.10;;;;;;;;;;5037357;28;20055;-86
2022/06/12 05:05:14;;;;;;;3.47;3.17;;;;;;;;;;5054996;28;20049;-86
2022/06/12 05:07:41;;;;;;;3.75;3.42;;;;;;;;;;5054956;28;20128;-86
2022/06/12 05:10:10;;;;;;;4.75;3.10;;;;;;;;;;5037253;28;20127;-86
2022/06/12 05:12:37;;;;;;;2.83;2.60;;;;;;;;;;5054845;28;20057;-86
2022/06/12 05:15:05;;;;;;;6.13;2.30;;;;;;;;;;5054364;28;20071;-85
2022/06/12 05:17:32;;;;;;;7.03;2.42;;;;;;;;;;5037306;28;20049;-84
2022/06/12 05:19:59;;;;;;;3.90;2.38;;;;;;;;;;5054393;28;20103;-84
2022/06/12 05:22:26;;;;;;;4.22;2.20;;;;;;;;;;5037237;28;20045;-83
2022/06/12 05:24:54;;;;;;;5.78;2.55;;;;;;;;;;5036932;28;20041;-84
2022/06/12 05:27:22;;;;;;;8.90;2.72;;;;;;;;;;5037123;28;20049;-85
2022/06/12 05:29:50;;;;;;;4.35;2.20;;;;;;;;;;5054372;28;20060;-84
2022/06/12 05:32:19;;;;;;;10.40;2.45;;;;;;;;;;5054610;28;20055;-84
2022/06/12 05:34:46;;;;;;;4.03;2.65;;;;;;;;;;5037068;28;20131;-84
2022/06/12 05:37:14;;;;;;;4.13;1.88;;;;;;;;;;5036646;28;20048;-84
2022/06/12 05:39:42;;;;;;;11.00;2.50;;;;;;;;;;5037046;28;20049;-84
2022/06/12 05:42:09;;;;;;;5.78;2.13;;;;;;;;;;5036566;28;20063;-84
2022/06/12 05:44:37;;;;;;;6.78;2.47;;;;;;;;;;5059753;28;20116;-84
2022/06/12 05:47:04;;;;;;;3.67;1.83;;;;;;;;;;5067313;28;20083;-84
2022/06/12 05:49:31;;;;;;;1.65;1.55;;;;;;;;;;5054584;28;20052;-84
2022/06/12 05:51:59;;;;;;;2.38;1.88;;;;;;;;;;5036235;28;20055;-83
2022/06/12 05:54:26;;;;;;;3.58;1.55;;;;;;;;;;5036402;28;20147;-84
2022/06/12 05:56:54;;;;;;;3.15;1.63;;;;;;;;;;5036125;28;20053;-84
2022/06/12 05:59:22;;;;;;;4.68;1.83;;;;;;;;;;5053925;28;20394;-84
2022/06/12 06:01:49;;;;;;;1.98;1.35;;;;;;;;;;5036082;28;20135;-84
2022/06/12 06:04:16;;;;;;;2.05;1.50;;;;;;;;;;5036212;28;20148;-84
2022/06/12 06:06:45;;;;;;;2.33;1.70;;;;;;;;;;5053795;28;20051;-84
2022/06/12 06:09:13;;;;;;;7.95;1.95;;;;;;;;;;5036321;28;20409;-84
2022/06/12 06:11:40;;;;;;;11.48;2.75;;;;;;;;;;5053362;28;20076;-84
2022/06/12 06:14:08;;;;;;;11.02;2.10;;;;;;;;;;5035999;28;20136;-84
2022/06/12 06:16:39;;;;;;;14.70;3.38;;;;;;;;;;5036176;28;20120;-84
2022/06/12 06:19:07;;;;;;;24.40;3.63;;;;;;;;;;5036235;28;20049;-85
2022/06/12 06:21:34;;;;;;;18.35;3.67;;;;;;;;;;5053638;28;20049;-84
2022/06/12 06:24:02;;;;;;;14.82;3.53;;;;;;;;;;5035301;28;20132;-84
2022/06/12 06:26:29;;;;;;;12.00;3.15;;;;;;;;;;5053408;28;20080;-84
2022/06/12 06:28:57;;;;;;;14.55;2.85;;;;;;;;;;5035752;28;20102;-83
2022/06/12 06:31:25;;;;;;;17.05;2.97;;;;;;;;;;5053311;28;20462;-84
2022/06/12 06:33:52;;;;;;;13.02;2.83;;;;;;;;;;5035789;28;20053;-84
2022/06/12 06:36:20;;;;;;;18.42;3.17;;;;;;;;;;5051591;28;20454;-83
2022/06/12 06:38:50;;;;;;;10.20;2.30;;;;;;;;;;5035580;28;20045;-84
2022/06/12 06:41:17;;;;;;;9.43;2.53;;;;;;;;;;5035200;28;20096;-83
2022/06/12 06:46:30;;;;;;;8.02;2.15;;;;;;;;;;5053381;28;20076;-86
2022/06/12 06:48:58;;;;;;;5.30;1.50;;;;;;;;;;5035092;28;20059;-89
2022/06/12 06:51:25;;;;;;;4.47;1.48;;;;;;;;;;5052675;28;20076;-83
2022/06/12 06:53:52;;;;;;;2.45;1.40;;;;;;;;;;5035559;28;20087;-85
2022/06/12 06:56:20;;;;;;;3.47;1.20;;;;;;;;;;5052972;28;20067;-84
2022/06/12 06:58:47;;;;;;;3.55;1.20;;;;;;;;;;5035468;28;20083;-85
2022/06/12 07:01:14;;;;;;;2.70;0.98;;;;;;;;;;5037298;28;20056;-84
2022/06/12 07:03:42;;;;;;;2.25;1.10;;;;;;;;;;5066494;28;20049;-85
2022/06/12 07:06:11;;;;;;;1.73;1.10;;;;;;;;;;5053092;28;20053;-86
2022/06/12 07:08:39;;;;;;;1.25;1.10;;;;;;;;;;5035024;28;20091;-84
2022/06/12 07:11:06;;;;;;;2.65;1.20;;;;;;;;;;5035446;28;20080;-83
2022/06/12 07:13:33;;;;;;;2.70;1.40;;;;;;;;;;5035248;28;20087;-85
2022/06/12 07:16:00;;;;;;;2.45;1.08;;;;;;;;;;5035083;28;20059;-83
2022/06/12 07:18:27;;;;;;;3.10;1.30;;;;;;;;;;5035390;28;20073;-84
2022/06/12 07:20:56;;;;;;;1.92;1.40;;;;;;;;;;5035381;28;20080;-83
2022/06/12 07:23:24;;;;;;;1.65;1.00;;;;;;;;;;5035124;28;20051;-86
2022/06/12 07:25:54;;;;;;;1.63;1.50;;;;;;;;;;5034779;28;20068;-85
2022/06/12 07:28:22;;;;;;;2.42;0.93;;;;;;;;;;5052754;28;20405;-84
2022/06/12 07:30:50;;;;;;;1.35;1.10;;;;;;;;;;5035518;28;20089;-85
2022/06/12 07:33:17;;;;;;;1.95;1.25;;;;;;;;;;5034940;28;20132;-84
2022/06/12 07:35:45;;;;;;;4.60;1.35;;;;;;;;;;5052766;28;20049;-86
2022/06/12 07:38:14;;;;;;;1.58;1.10;;;;;;;;;;5035465;28;20057;-84
2022/06/12 07:40:44;;;;;;;1.65;1.13;;;;;;;;;;5035156;28;20516;-84
2022/06/12 07:43:12;;;;;;;3.10;1.23;;;;;;;;;;5035217;28;20079;-83
2022/06/12 07:45:40;;;;;;;4.93;1.20;;;;;;;;;;5035050;28;20069;-84
2022/06/12 07:48:07;;;;;;;1.95;1.02;;;;;;;;;;5052899;28;20408;-85
2022/06/12 07:50:37;;;;;;;2.28;1.27;;;;;;;;;;5052525;28;20045;-85
2022/06/12 07:53:04;;;;;;;1.10;1.00;;;;;;;;;;5034848;28;20051;-84
2022/06/12 07:55:32;;;;;;;2.60;1.65;;;;;;;;;;5052556;28;20047;-84
2022/06/12 07:57:59;;;;;;;4.50;1.27;;;;;;;;;;5034542;28;20131;-83
2022/06/12 08:00:26;;;;;;;0.88;0.88;;;;;;;;;;5036690;28;20505;-83
2022/06/12 08:02:55;;;;;;;2.08;0.98;;;;;;;;;;5056211;28;20064;-84
2022/06/12 08:05:22;;;;;;;1.88;1.00;;;;;;;;;;5056444;28;20543;-89
2022/06/12 08:07:49;;;;;;;1.52;1.17;;;;;;;;;;5038977;28;20052;-86
2022/06/12 08:10:17;;;;;;;3.83;1.08;;;;;;;;;;5038574;28;20072;-84
2022/06/12 08:12:46;;;;;;;4.28;1.45;;;;;;;;;;5055899;28;20068;-86
2022/06/12 08:15:16;;;;;;;5.07;1.17;;;;;;;;;;5038695;28;20052;-85
2022/06/12 08:17:43;;;;;;;2.20;1.42;;;;;;;;;;5056846;28;20056;-85
2022/06/12 08:20:30;;;;;;;1.75;1.13;;;;;;;;;;5048822;28;20117;-83
2022/06/12 08:22:59;;;;;;;2.92;0.90;;;;;;;;;;5045510;28;20053;-83
2022/06/12 08:25:28;;;;;;;3.35;0.90;;;;;;;;;;5038146;28;20076;-83
2022/06/12 08:27:56;;;;;;;0.80;0.80;;;;;;;;;;5038564;28;20049;-84
2022/06/12 08:30:23;;;;;;;1.95;1.00;;;;;;;;;;5055816;28;20135;-83
2022/06/12 08:32:51;;;;;;;1.40;0.90;;;;;;;;;;5037508;28;20052;-85
2022/06/12 08:35:21;;;;;;;1.38;0.90;;;;;;;;;;5037943;28;20507;-88
2022/06/12 08:37:48;;;;;;;2.70;0.75;;;;;;;;;;5037831;28;20136;-85
2022/06/12 08:40:19;;;;;;;3.55;1.38;;;;;;;;;;5038018;28;20057;-85
2022/06/12 08:42:50;;;;;;;2.30;0.90;;;;;;;;;;5038134;28;20080;-86
2022/06/12 08:45:20;;;;;;;1.52;0.95;;;;;;;;;;5057876;28;20063;-84
2022/06/12 08:48:04;;;;;;;2.03;1.30;;;;;;;;;;5055325;28;20527;-83
2022/06/12 08:50:43;;;;;;;3.05;0.80;;;;;;;;;;5054846;28;20052;-84
2022/06/12 08:53:10;;;;;;;2.30;1.08;;;;;;;;;;5037198;28;20048;-85
2022/06/12 08:55:43;;;;;;;2.10;0.98;;;;;;;;;;5055759;28;20124;-85
2022/06/12 08:58:11;;;;;;;;;;;;;;;;;;5055703;28;20056;-84
2022/06/12 09:00:39;;;;;;;2.83;0.90;;;;;;;;;;5037118;28;20059;-84
2022/06/12 09:03:08;;;;;;;2.80;1.17;;;;;;;;;;5037303;28;20052;-84
2022/06/12 09:05:47;;;;;;;1.23;0.77;;;;;;;;;;5037727;28;20126;-86
2022/06/12 09:08:19;;;;;;;1.77;1.00;;;;;;;;;;5037612;28;20136;-84
2022/06/12 09:10:53;;;;;;;2.75;1.27;;;;;;;;;;5054391;28;20481;-84
2022/06/12 09:13:26;;;;;;;1.25;0.73;;;;;;;;;;5036844;28;20412;-84
2022/06/12 09:16:02;;;;;;;1.48;0.93;;;;;;;;;;5037527;28;20052;-85
2022/06/12 09:18:51;;;;;;;1.20;0.90;;;;;;;;;;5055468;28;20087;-86
2022/06/12 09:21:27;;;;;;;1.75;1.27;;;;;;;;;;5037377;28;20459;-85
2022/06/12 09:24:14;;;;;;;2.40;0.70;;;;;;;;;;5037232;28;20053;-84
2022/06/12 09:27:02;;;;;;;1.27;0.70;;;;;;;;;;5037405;28;20076;-85
2022/06/12 09:29:29;;;;;;;83.05;7.82;;;;;;;;;;5037003;28;20132;-83
2022/06/12 09:32:24;;;;;;;20.23;2.97;;;;;;;;;;5036327;28;20049;-84
2022/06/12 09:35:26;;;;;;;0.68;0.68;;;;;;;;;;5036896;28;20076;-84
2022/06/12 09:38:21;;;;;;;2.83;0.68;;;;;;;;;;4956777;29;20043;-84
2022/06/12 09:40:51;;;;;;;0.75;0.55;;;;;;;;;;5038684;28;20452;-85
2022/06/12 09:43:25;;;;;;;0.60;0.40;;;;;;;;;;5036774;28;20127;-84
2022/06/12 09:46:01;;;;;;;2.40;0.60;;;;;;;;;;5054174;28;20060;-84
2022/06/12 09:48:44;;;;;;;2.50;0.70;;;;;;;;;;5053991;28;20397;-84
2022/06/12 09:51:29;;;;;;;5.57;0.60;;;;;;;;;;5054064;28;20099;-84
2022/06/12 09:54:05;;;;;;;2.38;0.60;;;;;;;;;;5036139;28;20053;-83
2022/06/12 09:56:45;;;;;;;3.22;0.57;;;;;;;;;;5036194;28;20481;-84
2022/06/12 09:59:15;;;;;;;0.43;0.40;;;;;;;;;;5036101;28;20103;-84
2022/06/12 10:01:45;;;;;;;1.23;0.50;;;;;;;;;;5053785;28;20452;-90
2022/06/12 10:04:16;;;;;;;0.82;0.63;;;;;;;;;;5053728;28;20123;-83
2022/06/12 10:06:43;;;;;;;1.38;0.50;;;;;;;;;;5053818;28;20136;-84
2022/06/12 10:09:16;;;;;;;1.92;0.60;;;;;;;;;;5053646;28;20152;-83
2022/06/12 10:11:43;;;;;;;2.47;0.70;;;;;;;;;;5053349;28;20063;-90
2022/06/12 10:14:32;;;;;;;0.70;0.50;;;;;;;;;;5053622;28;20104;-84
2022/06/12 10:17:12;;;;;;;0.60;0.60;;;;;;;;;;5036141;28;20044;-84
2022/06/12 10:19:53;;;;;;;0.73;0.52;;;;;;;;;;5036206;28;20056;-86
2022/06/12 10:22:28;;;;;;;1.52;0.40;;;;;;;;;;5035374;28;20462;-83
2022/06/12 10:24:56;;;;;;;0.70;0.40;;;;;;;;;;5035778;28;20053;-84
2022/06/12 10:27:24;;;;;;;0.65;0.50;;;;;;;;;;5053435;28;20132;-85
2022/06/12 10:29:56;;;;;;;2.15;0.40;;;;;;;;;;5053313;28;20413;-83
2022/06/12 10:32:26;;;;;;;1.88;0.60;;;;;;;;;;5035408;28;20048;-83
2022/06/12 10:34:56;;;;;;;0.75;0.50;;;;;;;;;;5052953;28;20464;-86
2022/06/12 10:37:27;;;;;;;0.40;0.30;;;;;;;;;;5053531;28;20049;-83
2022/06/12 10:40:01;;;;;;;1.17;0.43;;;;;;;;;;5053350;28;20136;-83
2022/06/12 10:42:30;;;;;;;0.30;0.28;;;;;;;;;;5035671;28;20041;-84
2022/06/12 10:44:58;;;;;;;1.55;0.30;;;;;;;;;;5052604;28;20110;-82
2022/06/12 10:47:30;;;;;;;0.35;0.35;;;;;;;;;;5035270;28;20131;-84
2022/06/12 10:50:06;;;;;;;1.58;0.35;;;;;;;;;;5052977;28;20124;-83
2022/06/12 10:52:34;;;;;;;0.55;0.40;;;;;;;;;;5053211;28;20131;-90
2022/06/12 10:55:02;;;;;;;0.82;0.68;;;;;;;;;;5055059;28;20140;-83
2022/06/12 10:57:52;;;;;;;2.75;0.68;;;;;;;;;;5062384;28;20488;-84
2022/06/12 11:00:20;;;;;;;0.80;0.52;;;;;;;;;;5031536;28;20108;-84
2022/06/12 11:02:48;;;;;;;1.38;0.73;;;;;;;;;;5033080;28;20133;-84
2022/06/12 11:05:28;;;;;;;2.10;0.63;;;;;;;;;;5031771;28;20073;-83
2022/06/12 11:08:18;;;;;;;1.38;0.52;;;;;;;;;;5031437;28;20505;-83
2022/06/12 11:10:53;;;;;;;0.65;0.50;;;;;;;;;;5031903;28;20540;-84
2022/06/12 11:13:44;;;;;;;0.60;0.60;;;;;;;;;;5032859;28;20490;-84
2022/06/12 11:16:19;;;;;;;2.28;0.60;;;;;;;;;;5032560;28;20080;-83
2022/06/12 11:19:05;;;;;;;0.50;0.50;;;;;;;;;;5031766;28;20409;-84
2022/06/12 11:21:35;;;;;;;0.63;0.63;;;;;;;;;;5033034;28;20060;-84
2022/06/12 11:24:07;;;;;;;1.80;0.57;;;;;;;;;;5031439;28;20493;-82
2022/06/12 11:26:38;;;;;;;1.70;0.50;;;;;;;;;;5031430;28;20529;-82
2022/06/12 11:29:13;;;;;;;0.90;0.70;;;;;;;;;;5031497;28;20145;-83
2022/06/12 11:32:00;;;;;;;1.50;0.70;;;;;;;;;;5031542;28;20046;-83
2022/06/12 11:34:48;;;;;;;4.13;0.90;;;;;;;;;;5033083;28;20215;-84
2022/06/12 11:37:35;;;;;;;0.80;0.80;;;;;;;;;;5036585;28;20049;-92
2022/06/12 11:40:13;;;;;;;8.43;1.50;;;;;;;;;;5035788;28;20525;-85
2022/06/12 11:42:46;;;;;;;0.70;0.70;;;;;;;;;;5035737;28;20049;-84
2022/06/12 11:45:51;;;;;;;0.95;0.68;;;;;;;;;;5035391;28;20114;-84
2022/06/12 11:48:47;;;;;;;0.60;0.60;;;;;;;;;;5035226;28;20049;-83
2022/06/12 11:51:21;;;;;;;0.43;0.43;;;;;;;;;;5035225;28;20049;-83
2022/06/12 11:53:54;;;;;;;0.63;0.60;;;;;;;;;;5034883;28;20060;-84
2022/06/12 11:56:41;;;;;;;1.95;0.57;;;;;;;;;;5035988;28;20141;-84
2022/06/12 11:59:08;;;;;;;0.52;0.52;;;;;;;;;;5039189;28;20060;-83
2022/06/12 12:01:49;;;;;;;0.47;0.47;;;;;;;;;;5039049;28;20148;-83
2022/06/12 12:04:26;;;;;;;0.95;0.55;;;;;;;;;;5037964;28;20045;-85
2022/06/12 12:07:12;;;;;;;0.40;0.40;;;;;;;;;;5056103;28;20124;-84
2022/06/12 12:09:45;;;;;;;1.02;0.70;;;;;;;;;;5038412;28;20053;-82
2022/06/12 12:12:15;;;;;;;0.47;0.47;;;;;;;;;;5038648;28;20091;-83
2022/06/12 12:14:44;;;;;;;0.80;0.52;;;;;;;;;;5064898;28;20102;-83
2022/06/12 12:17:13;;;;;;;0.50;0.50;;;;;;;;;;5056051;28;20416;-84
2022/06/12 12:19:44;;;;;;;0.60;0.60;;;;;;;;;;5038254;28;20049;-83
2022/06/12 12:22:16;;;;;;;0.95;0.60;;;;;;;;;;5038155;28;20124;-83
2022/06/12 12:24:47;;;;;;;0.65;0.63;;;;;;;;;;5037801;28;20045;-84
2022/06/12 12:27:40;;;;;;;1.85;0.45;;;;;;;;;;5037901;28;20049;-84
2022/06/12 12:30:15;;;;;;;0.50;0.50;;;;;;;;;;5034428;28;20498;-83
2022/06/12 12:32:42;;;;;;;1.38;0.60;;;;;;;;;;5055430;28;20045;-83
2022/06/12 12:41:11;;;;;;;2.03;0.52;;;;;;;;;;5037938;28;20045;-85
2022/06/12 12:43:30;;;;;;;0.82;0.60;;;;;;;;;;5055389;28;20049;-84
2022/06/12 12:46:02;;;;;;;1.55;0.70;;;;;;;;;;5036297;28;20056;-84
2022/06/12 12:48:44;;;;;;;1.42;0.50;;;;;;;;;;5037917;28;20148;-84
2022/06/12 12:51:22;;;;;;;1.27;0.60;;;;;;;;;;5037548;28;20049;-84
2022/06/12 12:53:52;;;;;;;0.50;0.50;;;;;;;;;;5037595;28;20048;-87
2022/06/12 12:56:28;;;;;;;2.42;0.52;;;;;;;;;;5037305;28;20055;-85
2022/06/12 12:59:04;;;;;;;0.75;0.75;;;;;;;;;;5054931;28;20525;-88
2022/06/12 13:01:37;;;;;;;0.63;0.63;;;;;;;;;;5037801;28;20132;-84
2022/06/12 13:04:15;;;;;;;0.60;0.60;;;;;;;;;;5037434;28;20084;-84
2022/06/12 13:06:51;;;;;;;1.98;0.65;;;;;;;;;;5037145;28;20132;-84
2022/06/12 13:09:33;;;;;;;0.85;0.57;;;;;;;;;;5055181;28;20466;-84
2022/06/12 13:12:08;;;;;;;1.08;0.50;;;;;;;;;;5055337;28;20049;-85
2022/06/12 13:14:58;;;;;;;1.08;0.60;;;;;;;;;;5037595;28;20386;-85
2022/06/12 13:17:34;;;;;;;1.25;0.60;;;;;;;;;;5025597;28;20045;-83
2022/06/12 13:20:20;;;;;;;0.30;0.30;;;;;;;;;;5037825;28;20412;-83
2022/06/12 13:22:56;;;;;;;1.23;0.47;;;;;;;;;;5037090;28;20521;-82
2022/06/12 13:25:32;;;;;;;0.40;0.40;;;;;;;;;;5054493;28;20136;-84
2022/06/12 13:28:01;;;;;;;1.42;0.65;;;;;;;;;;5054403;28;20589;-84
2022/06/12 13:30:31;;;;;;;5.25;1.23;;;;;;;;;;5037750;28;20077;-86
2022/06/12 13:33:09;;;;;;;3.97;1.30;;;;;;;;;;5051586;28;20056;-83
2022/06/12 13:35:46;;;;;;;1.77;0.60;;;;;;;;;;5036691;28;20045;-83
2022/06/12 13:38:19;;;;;;;0.40;0.40;;;;;;;;;;5036580;28;20083;-83
2022/06/12 13:40:53;;;;;;;0.40;0.40;;;;;;;;;;5054054;28;20248;-84
2022/06/12 13:43:22;;;;;;;0.60;0.30;;;;;;;;;;5036676;28;20511;-83
2022/06/12 13:45:56;;;;;;;2.85;0.52;;;;;;;;;;5054413;28;20064;-87
2022/06/12 13:48:31;;;;;;;1.17;0.60;;;;;;;;;;5037509;28;20139;-83
2022/06/12 13:51:01;;;;;;;0.95;0.60;;;;;;;;;;5036548;28;20053;-83
2022/06/12 13:53:28;;;;;;;2.20;0.40;;;;;;;;;;5036083;28;20065;-83
2022/06/12 13:55:57;;;;;;;0.40;0.40;;;;;;;;;;5036501;28;20144;-83
2022/06/12 13:58:27;;;;;;;0.68;0.40;;;;;;;;;;5035548;28;20052;-85
2022/06/12 14:00:58;;;;;;;0.60;0.40;;;;;;;;;;5035678;28;20143;-83
2022/06/12 14:03:27;;;;;;;0.55;0.50;;;;;;;;;;5036424;28;20049;-83
2022/06/12 14:05:57;;;;;;;0.50;0.50;;;;;;;;;;5035778;28;20489;-84
2022/06/12 14:08:25;;;;;;;0.60;0.60;;;;;;;;;;5036174;28;20586;-84
2022/06/12 14:10:53;;;;;;;1.27;0.50;;;;;;;;;;5035782;28;20156;-83
2022/06/12 14:13:23;;;;;;;0.35;0.35;;;;;;;;;;5035805;28;20059;-85
2022/06/12 14:15:51;;;;;;;0.40;0.40;;;;;;;;;;5035836;28;20131;-84
2022/06/12 14:18:29;;;;;;;2.58;0.85;;;;;;;;;;5035853;28;20486;-87
2022/06/12 14:21:05;;;;;;;1.13;0.70;;;;;;;;;;5035720;28;20127;-84
2022/06/12 14:23:36;;;;;;;1.13;0.50;;;;;;;;;;5035415;28;20135;-84
2022/06/12 14:26:23;;;;;;;1.17;0.50;;;;;;;;;;5035155;28;20615;-83
2022/06/12 14:28:50;;;;;;;1.38;1.27;;;;;;;;;;5053276;28;20076;-84
2022/06/12 14:31:17;;;;;;;0.50;0.50;;;;;;;;;;5035651;28;20041;-83
2022/06/12 14:33:56;;;;;;;1.92;0.60;;;;;;;;;;5035600;28;20080;-83
2022/06/12 14:36:27;;;;;;;0.82;0.50;;;;;;;;;;5035132;28;20053;-84
2022/06/12 14:38:54;;;;;;;2.72;0.50;;;;;;;;;;5035564;28;20057;-84
2022/06/12 14:41:24;;;;;;;1.48;0.50;;;;;;;;;;5053259;28;20088;-84
2022/06/12 14:43:52;;;;;;;1.35;0.40;;;;;;;;;;5035662;28;20131;-84
2022/06/12 14:46:22;;;;;;;0.63;0.40;;;;;;;;;;5035607;28;20053;-84
2022/06/12 14:48:50;;;;;;;0.45;0.45;;;;;;;;;;5036360;28;20049;-84
2022/06/12 14:51:17;;;;;;;1.60;0.40;;;;;;;;;;5069387;28;20398;-84
2022/06/12 14:53:44;;;;;;;0.82;0.40;;;;;;;;;;5053322;28;20083;-84
2022/06/12 14:56:15;;;;;;;0.40;0.40;;;;;;;;;;5035376;28;20131;-85
2022/06/12 14:58:42;;;;;;;0.95;0.50;;;;;;;;;;5035274;28;20136;-85
2022/06/12 15:01:11;;;;;;;2.75;0.40;;;;;;;;;;5034884;28;20057;-83
2022/06/12 15:03:38;;;;;;;0.57;0.57;;;;;;;;;;5035355;28;20566;-83
2022/06/12 15:06:06;;;;;;;0.80;0.60;;;;;;;;;;5035139;28;20144;-83
2022/06/12 15:08:39;;;;;;;1.88;0.38;;;;;;;;;;5035586;28;20128;-84
2022/06/12 15:11:14;;;;;;;1.40;0.40;;;;;;;;;;5034939;28;20115;-83
2022/06/12 15:13:41;;;;;;;1.00;0.43;;;;;;;;;;5052352;28;20160;-83
2022/06/12 15:16:11;;;;;;;2.05;0.95;;;;;;;;;;5034958;28;20048;-85
2022/06/12 15:18:39;;;;;;;1.45;0.50;;;;;;;;;;5035103;28;20556;-83
2022/06/12 15:21:06;;;;;;;1.13;0.50;;;;;;;;;;5035007;28;20136;-84
2022/06/12 15:23:33;;;;;;;0.30;0.30;;;;;;;;;;5035064;28;20051;-84
2022/06/12 15:31:32;;;;;;;0.50;0.50;;;;;;;;;;5052436;28;20428;-82
2022/06/12 15:34:19;;;;;;;0.40;0.40;;;;;;;;;;5037112;28;20049;-83
2022/06/12 15:36:46;;;;;;;0.55;0.40;;;;;;;;;;5034599;28;20136;-84